sensor_id;sensor_type;location;lat;lon;timestamp;temperature;humidity
24618;DHT22;12762;51.730;5.356;2023-02-27T00:00:21;1.30;64.60
24618;DHT22;12762;51.730;5.356;2023-02-27T00:02:50;1.30;64.60
24618;DHT22;12762;51.730;5.356;2023-02-27T00:05:18;1.30;64.70
24618;DHT22;12762;51.730;5.356;2023-02-27T00:07:45;1.30;64.70
24618;DHT22;12762;51.730;5.356;2023-02-27T00:10:13;1.20;64.70
24618;DHT22;12762;51.730;5.356;2023-02-27T00:12:40;1.20;64.80
24618;DHT22;12762;51.730;5.356;2023-02-27T00:15:12;1.20;64.80
24618;DHT22;12762;51.730;5.356;2023-02-27T00:17:40;1.20;64.80
24618;DHT22;12762;51.730;5.356;2023-02-27T00:20:08;1.10;64.80
24618;DHT22;12762;51.730;5.356;2023-02-27T00:22:37;1.10;64.80
24618;DHT22;12762;51.730;5.356;2023-02-27T00:25:05;1.10;64.90
24618;DHT22;12762;51.730;5.356;2023-02-27T00:27:36;1.10;65.00
24618;DHT22;12762;51.730;5.356;2023-02-27T00:30:12;1.00;65.00
24618;DHT22;12762;51.730;5.356;2023-02-27T00:32:39;1.00;65.00
24618;DHT22;12762;51.730;5.356;2023-02-27T00:35:08;1.00;65.00
24618;DHT22;12762;51.730;5.356;2023-02-27T00:37:35;1.00;65.10
24618;DHT22;12762;51.730;5.356;2023-02-27T00:40:07;1.00;65.10
24618;DHT22;12762;51.730;5.356;2023-02-27T00:42:34;0.90;65.20
24618;DHT22;12762;51.730;5.356;2023-02-27T00:45:02;0.90;65.10
24618;DHT22;12762;51.730;5.356;2023-02-27T00:47:30;0.90;65.20
24618;DHT22;12762;51.730;5.356;2023-02-27T00:49:57;0.90;65.20
24618;DHT22;12762;51.730;5.356;2023-02-27T00:52:24;0.90;65.30
24618;DHT22;12762;51.730;5.356;2023-02-27T00:54:51;0.80;65.20
24618;DHT22;12762;51.730;5.356;2023-02-27T00:57:18;0.80;65.30
24618;DHT22;12762;51.730;5.356;2023-02-27T00:59:45;0.80;65.30
24618;DHT22;12762;51.730;5.356;2023-02-27T01:02:15;0.80;65.30
24618;DHT22;12762;51.730;5.356;2023-02-27T01:04:42;0.80;65.40
24618;DHT22;12762;51.730;5.356;2023-02-27T01:07:09;0.70;65.30
24618;DHT22;12762;51.730;5.356;2023-02-27T01:09:36;0.70;65.30
24618;DHT22;12762;51.730;5.356;2023-02-27T01:12:03;0.70;65.40
24618;DHT22;12762;51.730;5.356;2023-02-27T01:14:34;0.70;65.40
24618;DHT22;12762;51.730;5.356;2023-02-27T01:17:01;0.70;65.50
24618;DHT22;12762;51.730;5.356;2023-02-27T01:19:28;0.70;65.50
24618;DHT22;12762;51.730;5.356;2023-02-27T01:21:55;0.60;65.30
24618;DHT22;12762;51.730;5.356;2023-02-27T01:24:22;0.60;65.40
24618;DHT22;12762;51.730;5.356;2023-02-27T01:26:49;0.60;65.40
24618;DHT22;12762;51.730;5.356;2023-02-27T01:29:18;0.60;65.50
24618;DHT22;12762;51.730;5.356;2023-02-27T01:31:45;0.60;65.60
24618;DHT22;12762;51.730;5.356;2023-02-27T01:34:14;0.50;65.50
24618;DHT22;12762;51.730;5.356;2023-02-27T01:36:44;0.50;65.60
24618;DHT22;12762;51.730;5.356;2023-02-27T01:39:11;0.50;65.60
24618;DHT22;12762;51.730;5.356;2023-02-27T01:41:38;0.50;65.60
24618;DHT22;12762;51.730;5.356;2023-02-27T01:44:07;0.50;65.60
24618;DHT22;12762;51.730;5.356;2023-02-27T01:46:35;0.50;65.60
24618;DHT22;12762;51.730;5.356;2023-02-27T01:49:16;0.50;65.70
24618;DHT22;12762;51.730;5.356;2023-02-27T01:51:48;0.50;65.70
24618;DHT22;12762;51.730;5.356;2023-02-27T01:54:20;0.50;65.70
24618;DHT22;12762;51.730;5.356;2023-02-27T01:56:49;0.50;65.70
24618;DHT22;12762;51.730;5.356;2023-02-27T01:59:17;0.50;65.70
24618;DHT22;12762;51.730;5.356;2023-02-27T02:01:45;0.50;65.80
24618;DHT22;12762;51.730;5.356;2023-02-27T02:04:28;0.50;65.70
24618;DHT22;12762;51.730;5.356;2023-02-27T02:06:59;0.50;66.60
24618;DHT22;12762;51.730;5.356;2023-02-27T02:09:28;0.40;65.80
24618;DHT22;12762;51.730;5.356;2023-02-27T02:11:56;0.40;65.80
24618;DHT22;12762;51.730;5.356;2023-02-27T02:14:24;0.40;65.80
24618;DHT22;12762;51.730;5.356;2023-02-27T02:17:07;0.40;65.80
24618;DHT22;12762;51.730;5.356;2023-02-27T02:42:23;0.20;65.70
24618;DHT22;12762;51.730;5.356;2023-02-27T02:45:02;0.20;65.70
24618;DHT22;12762;51.730;5.356;2023-02-27T02:50:25;0.20;65.80
24618;DHT22;12762;51.730;5.356;2023-02-27T03:02:05;0.10;65.90
24618;DHT22;12762;51.730;5.356;2023-02-27T03:04:26;0.10;65.80
24618;DHT22;12762;51.730;5.356;2023-02-27T03:07:12;0.10;65.80
24618;DHT22;12762;51.730;5.356;2023-02-27T03:09:52;0.10;65.90
24618;DHT22;12762;51.730;5.356;2023-02-27T03:12:22;0.10;66.70
24618;DHT22;12762;51.730;5.356;2023-02-27T03:15:04;0.10;65.90
24618;DHT22;12762;51.730;5.356;2023-02-27T03:17:43;0.10;66.00
24618;DHT22;12762;51.730;5.356;2023-02-27T03:20:18;0.00;65.90
24618;DHT22;12762;51.730;5.356;2023-02-27T03:22:51;0.00;66.00
24618;DHT22;12762;51.730;5.356;2023-02-27T03:25:19;0.00;66.00
24618;DHT22;12762;51.730;5.356;2023-02-27T03:27:54;0.00;66.00
24618;DHT22;12762;51.730;5.356;2023-02-27T03:30:36;0.00;66.00
24618;DHT22;12762;51.730;5.356;2023-02-27T03:33:14;0.00;66.00
24618;DHT22;12762;51.730;5.356;2023-02-27T03:35:56;0.00;66.10
24618;DHT22;12762;51.730;5.356;2023-02-27T03:38:38;0.00;66.10
24618;DHT22;12762;51.730;5.356;2023-02-27T03:47:02;-0.10;65.90
24618;DHT22;12762;51.730;5.356;2023-02-27T03:49:29;-0.10;66.00
24618;DHT22;12762;51.730;5.356;2023-02-27T03:51:56;-0.10;66.00
24618;DHT22;12762;51.730;5.356;2023-02-27T03:54:30;-0.20;65.90
24618;DHT22;12762;51.730;5.356;2023-02-27T03:57:04;-0.20;66.00
24618;DHT22;12762;51.730;5.356;2023-02-27T03:59:32;-0.30;66.00
24618;DHT22;12762;51.730;5.356;2023-02-27T04:02:01;-0.30;66.00
24618;DHT22;12762;51.730;5.356;2023-02-27T04:04:30;-0.40;66.00
24618;DHT22;12762;51.730;5.356;2023-02-27T04:07:49;-0.40;66.10
24618;DHT22;12762;51.730;5.356;2023-02-27T04:21:48;-0.60;66.10
24618;DHT22;12762;51.730;5.356;2023-02-27T04:27:44;-0.70;66.20
24618;DHT22;12762;51.730;5.356;2023-02-27T04:35:49;-0.80;66.20
24618;DHT22;12762;51.730;5.356;2023-02-27T04:38:43;-0.80;66.20
24618;DHT22;12762;51.730;5.356;2023-02-27T04:41:15;-0.80;66.20
24618;DHT22;12762;51.730;5.356;2023-02-27T04:43:45;-0.90;66.20
24618;DHT22;12762;51.730;5.356;2023-02-27T04:46:15;-0.90;66.20
24618;DHT22;12762;51.730;5.356;2023-02-27T04:49:09;-0.90;66.30
24618;DHT22;12762;51.730;5.356;2023-02-27T04:51:43;-0.90;66.30
24618;DHT22;12762;51.730;5.356;2023-02-27T04:54:16;-0.90;66.30
24618;DHT22;12762;51.730;5.356;2023-02-27T04:56:48;-0.90;66.40
24618;DHT22;12762;51.730;5.356;2023-02-27T04:59:24;-1.00;66.40
24618;DHT22;12762;51.730;5.356;2023-02-27T05:04:24;-1.00;66.40
24618;DHT22;12762;51.730;5.356;2023-02-27T05:06:53;-1.00;66.50
24618;DHT22;12762;51.730;5.356;2023-02-27T05:09:39;-1.00;66.50
24618;DHT22;12762;51.730;5.356;2023-02-27T05:12:19;-0.90;66.60
24618;DHT22;12762;51.730;5.356;2023-02-27T05:17:27;-0.90;66.50
24618;DHT22;12762;51.730;5.356;2023-02-27T05:19:55;-0.90;66.50
24618;DHT22;12762;51.730;5.356;2023-02-27T05:22:25;-0.90;66.60
24618;DHT22;12762;51.730;5.356;2023-02-27T05:27:58;-0.90;66.70
24618;DHT22;12762;51.730;5.356;2023-02-27T05:30:48;-1.00;66.60
24618;DHT22;12762;51.730;5.356;2023-02-27T05:33:34;-1.00;66.60
24618;DHT22;12762;51.730;5.356;2023-02-27T05:36:16;-0.90;66.70
24618;DHT22;12762;51.730;5.356;2023-02-27T05:38:49;-1.00;66.50
24618;DHT22;12762;51.730;5.356;2023-02-27T05:41:27;-0.90;66.70
24618;DHT22;12762;51.730;5.356;2023-02-27T05:44:09;-0.90;66.80
24618;DHT22;12762;51.730;5.356;2023-02-27T05:46:42;-0.90;66.70
24618;DHT22;12762;51.730;5.356;2023-02-27T05:49:19;-0.90;66.80
24618;DHT22;12762;51.730;5.356;2023-02-27T05:51:51;-0.90;67.30
24618;DHT22;12762;51.730;5.356;2023-02-27T05:54:47;-0.90;66.80
24618;DHT22;12762;51.730;5.356;2023-02-27T05:57:18;-0.90;66.80
24618;DHT22;12762;51.730;5.356;2023-02-27T06:00:03;-0.90;66.90
24618;DHT22;12762;51.730;5.356;2023-02-27T06:02:32;-0.80;66.90
24618;DHT22;12762;51.730;5.356;2023-02-27T06:05:01;-0.80;66.90
24618;DHT22;12762;51.730;5.356;2023-02-27T06:07:33;-0.80;67.00
24618;DHT22;12762;51.730;5.356;2023-02-27T06:10:00;-0.80;66.90
24618;DHT22;12762;51.730;5.356;2023-02-27T06:12:27;-0.80;67.00
24618;DHT22;12762;51.730;5.356;2023-02-27T06:14:54;-0.80;67.00
24618;DHT22;12762;51.730;5.356;2023-02-27T06:17:21;-0.80;67.00
24618;DHT22;12762;51.730;5.356;2023-02-27T06:19:48;-0.80;67.00
24618;DHT22;12762;51.730;5.356;2023-02-27T06:22:14;-0.80;67.10
24618;DHT22;12762;51.730;5.356;2023-02-27T06:24:41;-0.80;67.10
24618;DHT22;12762;51.730;5.356;2023-02-27T06:27:08;-0.80;67.20
24618;DHT22;12762;51.730;5.356;2023-02-27T06:29:35;-0.90;67.10
24618;DHT22;12762;51.730;5.356;2023-02-27T06:32:01;-0.90;67.20
24618;DHT22;12762;51.730;5.356;2023-02-27T06:34:28;-0.90;67.20
24618;DHT22;12762;51.730;5.356;2023-02-27T06:36:55;-0.90;67.30
24618;DHT22;12762;51.730;5.356;2023-02-27T06:39:28;-1.00;67.20
24618;DHT22;12762;51.730;5.356;2023-02-27T06:41:54;-1.00;67.30
24618;DHT22;12762;51.730;5.356;2023-02-27T06:44:21;-1.00;67.40
24618;DHT22;12762;51.730;5.356;2023-02-27T06:46:51;-1.00;67.40
24618;DHT22;12762;51.730;5.356;2023-02-27T06:49:18;-1.00;67.50
24618;DHT22;12762;51.730;5.356;2023-02-27T06:51:44;-1.00;67.50
24618;DHT22;12762;51.730;5.356;2023-02-27T06:54:13;-1.10;67.50
24618;DHT22;12762;51.730;5.356;2023-02-27T06:56:40;-1.00;67.60
24618;DHT22;12762;51.730;5.356;2023-02-27T06:59:07;-1.10;67.50
24618;DHT22;12762;51.730;5.356;2023-02-27T07:01:34;-1.10;67.50
24618;DHT22;12762;51.730;5.356;2023-02-27T07:04:04;-1.00;67.70
24618;DHT22;12762;51.730;5.356;2023-02-27T07:06:33;-1.00;67.70
24618;DHT22;12762;51.730;5.356;2023-02-27T07:09:20;-1.00;67.70
24618;DHT22;12762;51.730;5.356;2023-02-27T07:11:48;-1.00;67.70
24618;DHT22;12762;51.730;5.356;2023-02-27T07:14:16;-1.00;67.70
24618;DHT22;12762;51.730;5.356;2023-02-27T07:16:43;-1.00;67.70
24618;DHT22;12762;51.730;5.356;2023-02-27T07:19:10;-0.90;67.80
24618;DHT22;12762;51.730;5.356;2023-02-27T07:21:37;-0.90;67.80
24618;DHT22;12762;51.730;5.356;2023-02-27T07:24:04;-0.90;67.80
24618;DHT22;12762;51.730;5.356;2023-02-27T07:26:31;-0.80;67.90
24618;DHT22;12762;51.730;5.356;2023-02-27T07:28:59;-0.80;67.90
24618;DHT22;12762;51.730;5.356;2023-02-27T07:31:26;-0.70;68.00
24618;DHT22;12762;51.730;5.356;2023-02-27T07:33:54;-0.70;67.90
24618;DHT22;12762;51.730;5.356;2023-02-27T07:36:21;-0.70;67.90
24618;DHT22;12762;51.730;5.356;2023-02-27T07:38:48;-0.60;68.00
24618;DHT22;12762;51.730;5.356;2023-02-27T07:41:15;-0.60;68.00
24618;DHT22;12762;51.730;5.356;2023-02-27T07:43:55;-0.50;68.10
24618;DHT22;12762;51.730;5.356;2023-02-27T07:46:22;-0.40;68.20
24618;DHT22;12762;51.730;5.356;2023-02-27T07:48:50;-0.40;68.20
24618;DHT22;12762;51.730;5.356;2023-02-27T07:51:16;-0.30;68.20
24618;DHT22;12762;51.730;5.356;2023-02-27T07:53:44;-0.30;68.20
24618;DHT22;12762;51.730;5.356;2023-02-27T07:56:10;-0.20;68.30
24618;DHT22;12762;51.730;5.356;2023-02-27T07:58:37;-0.10;68.40
24618;DHT22;12762;51.730;5.356;2023-02-27T08:01:04;-0.10;68.20
24618;DHT22;12762;51.730;5.356;2023-02-27T08:03:31;0.00;68.30
24618;DHT22;12762;51.730;5.356;2023-02-27T08:05:58;0.00;68.30
24618;DHT22;12762;51.730;5.356;2023-02-27T08:08:28;0.10;68.40
24618;DHT22;12762;51.730;5.356;2023-02-27T08:10:55;0.20;68.50
24618;DHT22;12762;51.730;5.356;2023-02-27T08:13:22;0.20;68.40
24618;DHT22;12762;51.730;5.356;2023-02-27T08:16:08;0.30;68.50
24618;DHT22;12762;51.730;5.356;2023-02-27T08:18:38;0.40;68.60
24618;DHT22;12762;51.730;5.356;2023-02-27T08:21:05;0.40;68.60
24618;DHT22;12762;51.730;5.356;2023-02-27T08:23:35;0.50;68.60
24618;DHT22;12762;51.730;5.356;2023-02-27T08:26:02;0.60;68.80
24618;DHT22;12762;51.730;5.356;2023-02-27T08:28:29;1.60;70.80
24618;DHT22;12762;51.730;5.356;2023-02-27T08:30:56;3.10;71.70
24618;DHT22;12762;51.730;5.356;2023-02-27T08:33:23;4.30;71.00
24618;DHT22;12762;51.730;5.356;2023-02-27T08:35:50;5.70;70.40
24618;DHT22;12762;51.730;5.356;2023-02-27T08:38:20;7.00;69.20
24618;DHT22;12762;51.730;5.356;2023-02-27T08:40:49;8.00;67.30
24618;DHT22;12762;51.730;5.356;2023-02-27T08:43:22;8.90;65.60
24618;DHT22;12762;51.730;5.356;2023-02-27T08:45:52;9.80;64.40
24618;DHT22;12762;51.730;5.356;2023-02-27T08:48:20;10.50;62.20
24618;DHT22;12762;51.730;5.356;2023-02-27T08:50:50;11.10;61.20
24618;DHT22;12762;51.730;5.356;2023-02-27T08:53:16;11.50;59.90
24618;DHT22;12762;51.730;5.356;2023-02-27T08:55:48;11.60;59.20
24618;DHT22;12762;51.730;5.356;2023-02-27T08:58:16;11.50;58.50
24618;DHT22;12762;51.730;5.356;2023-02-27T09:00:44;11.20;58.40
24618;DHT22;12762;51.730;5.356;2023-02-27T09:03:11;10.80;58.50
24618;DHT22;12762;51.730;5.356;2023-02-27T09:05:39;10.40;58.60
24618;DHT22;12762;51.730;5.356;2023-02-27T09:08:06;10.00;58.70
24618;DHT22;12762;51.730;5.356;2023-02-27T09:10:33;9.60;59.90
24618;DHT22;12762;51.730;5.356;2023-02-27T09:13:00;9.30;60.50
24618;DHT22;12762;51.730;5.356;2023-02-27T09:15:27;9.00;61.00
24618;DHT22;12762;51.730;5.356;2023-02-27T09:17:54;8.80;61.60
24618;DHT22;12762;51.730;5.356;2023-02-27T09:20:25;8.70;62.30
24618;DHT22;12762;51.730;5.356;2023-02-27T09:22:52;8.60;62.80
24618;DHT22;12762;51.730;5.356;2023-02-27T09:25:19;8.50;63.30
24618;DHT22;12762;51.730;5.356;2023-02-27T09:27:51;8.60;63.90
24618;DHT22;12762;51.730;5.356;2023-02-27T09:30:18;8.70;64.40
24618;DHT22;12762;51.730;5.356;2023-02-27T09:32:45;9.10;64.90
24618;DHT22;12762;51.730;5.356;2023-02-27T09:35:12;9.60;65.00
24618;DHT22;12762;51.730;5.356;2023-02-27T09:37:44;10.00;63.50
24618;DHT22;12762;51.730;5.356;2023-02-27T09:42:46;10.40;62.40
24618;DHT22;12762;51.730;5.356;2023-02-27T09:45:23;10.30;61.70
24618;DHT22;12762;51.730;5.356;2023-02-27T09:48:02;10.20;61.80
24618;DHT22;12762;51.730;5.356;2023-02-27T09:50:35;10.10;61.80
24618;DHT22;12762;51.730;5.356;2023-02-27T09:53:12;10.00;61.90
24618;DHT22;12762;51.730;5.356;2023-02-27T09:55:40;10.00;61.80
24618;DHT22;12762;51.730;5.356;2023-02-27T09:58:33;9.90;63.00
24618;DHT22;12762;51.730;5.356;2023-02-27T10:01:14;9.80;62.90
24618;DHT22;12762;51.730;5.356;2023-02-27T10:12:30;9.80;63.10
24618;DHT22;12762;51.730;5.356;2023-02-27T10:17:59;9.80;63.10
24618;DHT22;12762;51.730;5.356;2023-02-27T10:20:52;9.80;62.80
24618;DHT22;12762;51.730;5.356;2023-02-27T10:23:50;9.90;62.90
24618;DHT22;12762;51.730;5.356;2023-02-27T10:26:28;9.90;62.90
24618;DHT22;12762;51.730;5.356;2023-02-27T10:28:58;10.00;61.70
24618;DHT22;12762;51.730;5.356;2023-02-27T10:31:30;10.10;62.20
24618;DHT22;12762;51.730;5.356;2023-02-27T10:33:59;10.20;62.30
24618;DHT22;12762;51.730;5.356;2023-02-27T10:36:27;10.30;61.60
24618;DHT22;12762;51.730;5.356;2023-02-27T10:39:13;10.40;61.40
24618;DHT22;12762;51.730;5.356;2023-02-27T10:41:49;10.50;61.50
24618;DHT22;12762;51.730;5.356;2023-02-27T10:44:17;10.60;61.30
24618;DHT22;12762;51.730;5.356;2023-02-27T10:46:47;10.70;60.60
24618;DHT22;12762;51.730;5.356;2023-02-27T10:49:20;10.70;60.60
24618;DHT22;12762;51.730;5.356;2023-02-27T10:52:10;10.80;60.40
24618;DHT22;12762;51.730;5.356;2023-02-27T10:54:38;10.90;60.50
24618;DHT22;12762;51.730;5.356;2023-02-27T10:59:57;11.00;60.10
24618;DHT22;12762;51.730;5.356;2023-02-27T11:02:37;11.00;60.00
24618;DHT22;12762;51.730;5.356;2023-02-27T11:05:16;11.10;59.90
24618;DHT22;12762;51.730;5.356;2023-02-27T11:07:44;11.20;60.00
24618;DHT22;12762;51.730;5.356;2023-02-27T11:12:38;11.30;59.60
24618;DHT22;12762;51.730;5.356;2023-02-27T11:17:42;11.50;59.30
24618;DHT22;12762;51.730;5.356;2023-02-27T11:20:39;11.60;59.10
24618;DHT22;12762;51.730;5.356;2023-02-27T11:23:21;11.80;59.20
24618;DHT22;12762;51.730;5.356;2023-02-27T11:25:49;11.90;59.00
24618;DHT22;12762;51.730;5.356;2023-02-27T11:28:23;11.90;58.50
24618;DHT22;12762;51.730;5.356;2023-02-27T11:31:04;11.70;57.60
24618;DHT22;12762;51.730;5.356;2023-02-27T11:33:38;11.40;57.90
24618;DHT22;12762;51.730;5.356;2023-02-27T11:36:06;11.40;58.30
24618;DHT22;12762;51.730;5.356;2023-02-27T11:38:33;11.40;58.60
24618;DHT22;12762;51.730;5.356;2023-02-27T11:41:06;11.50;58.30
24618;DHT22;12762;51.730;5.356;2023-02-27T11:43:48;11.70;58.10
24618;DHT22;12762;51.730;5.356;2023-02-27T11:46:21;11.70;56.90
24618;DHT22;12762;51.730;5.356;2023-02-27T11:49:37;11.40;56.90
24618;DHT22;12762;51.730;5.356;2023-02-27T11:52:22;11.20;56.70
24618;DHT22;12762;51.730;5.356;2023-02-27T11:54:57;11.00;56.80
24618;DHT22;12762;51.730;5.356;2023-02-27T11:57:35;10.80;57.10
24618;DHT22;12762;51.730;5.356;2023-02-27T12:05:31;10.20;56.70
24618;DHT22;12762;51.730;5.356;2023-02-27T12:08:10;10.10;56.80
24618;DHT22;12762;51.730;5.356;2023-02-27T12:10:59;9.90;57.90
24618;DHT22;12762;51.730;5.356;2023-02-27T12:13:42;9.80;58.10
24618;DHT22;12762;51.730;5.356;2023-02-27T12:16:28;9.70;58.30
24618;DHT22;12762;51.730;5.356;2023-02-27T12:19:17;9.60;58.30
24618;DHT22;12762;51.730;5.356;2023-02-27T12:21:49;9.60;58.60
24618;DHT22;12762;51.730;5.356;2023-02-27T12:24:53;9.50;58.40
24618;DHT22;12762;51.730;5.356;2023-02-27T12:30:22;9.40;58.50
24618;DHT22;12762;51.730;5.356;2023-02-27T12:32:56;9.30;58.60
24618;DHT22;12762;51.730;5.356;2023-02-27T12:35:29;9.40;58.90
24618;DHT22;12762;51.730;5.356;2023-02-27T12:37:56;9.50;58.70
24618;DHT22;12762;51.730;5.356;2023-02-27T12:40:38;9.60;59.00
24618;DHT22;12762;51.730;5.356;2023-02-27T12:43:21;9.80;59.00
24618;DHT22;12762;51.730;5.356;2023-02-27T12:51:53;10.70;57.50
24618;DHT22;12762;51.730;5.356;2023-02-27T12:54:32;10.90;57.40
24618;DHT22;12762;51.730;5.356;2023-02-27T12:57:45;11.10;56.80
24618;DHT22;12762;51.730;5.356;2023-02-27T13:02:43;11.50;56.40
24618;DHT22;12762;51.730;5.356;2023-02-27T13:11:11;12.00;55.40
24618;DHT22;12762;51.730;5.356;2023-02-27T13:14:00;12.00;55.00
24618;DHT22;12762;51.730;5.356;2023-02-27T13:16:40;11.90;55.00
24618;DHT22;12762;51.730;5.356;2023-02-27T13:19:19;11.70;54.80
24618;DHT22;12762;51.730;5.356;2023-02-27T13:21:54;11.60;54.60
24618;DHT22;12762;51.730;5.356;2023-02-27T13:24:29;11.40;54.80
24618;DHT22;12762;51.730;5.356;2023-02-27T13:27:03;11.40;54.60
24618;DHT22;12762;51.730;5.356;2023-02-27T13:29:47;11.20;54.50
24618;DHT22;12762;51.730;5.356;2023-02-27T13:32:27;11.10;54.70
24618;DHT22;12762;51.730;5.356;2023-02-27T13:35:20;11.00;54.80
24618;DHT22;12762;51.730;5.356;2023-02-27T13:40:37;10.80;55.10
24618;DHT22;12762;51.730;5.356;2023-02-27T13:43:33;10.70;55.10
24618;DHT22;12762;51.730;5.356;2023-02-27T13:46:30;10.60;54.90
24618;DHT22;12762;51.730;5.356;2023-02-27T13:56:33;10.30;55.30
24618;DHT22;12762;51.730;5.356;2023-02-27T14:02:49;10.20;55.30
24618;DHT22;12762;51.730;5.356;2023-02-27T14:04:52;10.10;55.20
24618;DHT22;12762;51.730;5.356;2023-02-27T14:07:23;10.10;55.40
24618;DHT22;12762;51.730;5.356;2023-02-27T14:10:03;10.20;55.40
24618;DHT22;12762;51.730;5.356;2023-02-27T14:12:42;10.10;55.10
24618;DHT22;12762;51.730;5.356;2023-02-27T14:17:56;10.00;55.20
24618;DHT22;12762;51.730;5.356;2023-02-27T14:25:51;10.10;55.20
24618;DHT22;12762;51.730;5.356;2023-02-27T14:29:02;10.10;55.20
24618;DHT22;12762;51.730;5.356;2023-02-27T14:31:44;10.20;55.50
24618;DHT22;12762;51.730;5.356;2023-02-27T14:34:15;10.30;55.50
24618;DHT22;12762;51.730;5.356;2023-02-27T14:36:48;10.30;55.00
24618;DHT22;12762;51.730;5.356;2023-02-27T14:39:21;10.30;55.00
24618;DHT22;12762;51.730;5.356;2023-02-27T14:44:51;10.20;55.10
24618;DHT22;12762;51.730;5.356;2023-02-27T14:47:27;10.10;55.10
24618;DHT22;12762;51.730;5.356;2023-02-27T14:49:55;10.10;55.10
24618;DHT22;12762;51.730;5.356;2023-02-27T14:52:28;10.00;55.10
24618;DHT22;12762;51.730;5.356;2023-02-27T14:55:29;10.00;55.00
24618;DHT22;12762;51.730;5.356;2023-02-27T15:03:19;9.80;55.80
24618;DHT22;12762;51.730;5.356;2023-02-27T15:05:48;9.70;55.80
24618;DHT22;12762;51.730;5.356;2023-02-27T15:08:20;9.70;56.00
24618;DHT22;12762;51.730;5.356;2023-02-27T15:10:49;9.60;55.90
24618;DHT22;12762;51.730;5.356;2023-02-27T15:13:34;9.60;56.20
24618;DHT22;12762;51.730;5.356;2023-02-27T15:16:19;9.70;56.40
24618;DHT22;12762;51.730;5.356;2023-02-27T15:18:51;9.80;56.60
24618;DHT22;12762;51.730;5.356;2023-02-27T15:21:21;9.90;56.40
24618;DHT22;12762;51.730;5.356;2023-02-27T15:23:56;9.90;56.10
24618;DHT22;12762;51.730;5.356;2023-02-27T15:26:24;9.90;55.70
24618;DHT22;12762;51.730;5.356;2023-02-27T15:28:51;9.80;55.70
24618;DHT22;12762;51.730;5.356;2023-02-27T15:31:23;9.80;56.00
24618;DHT22;12762;51.730;5.356;2023-02-27T15:33:53;10.10;55.50
24618;DHT22;12762;51.730;5.356;2023-02-27T15:36:53;10.30;55.40
24618;DHT22;12762;51.730;5.356;2023-02-27T15:39:23;10.30;55.00
24618;DHT22;12762;51.730;5.356;2023-02-27T15:41:56;10.50;55.20
24618;DHT22;12762;51.730;5.356;2023-02-27T15:44:41;10.70;55.10
24618;DHT22;12762;51.730;5.356;2023-02-27T15:47:17;11.00;55.00
24618;DHT22;12762;51.730;5.356;2023-02-27T15:49:48;11.10;54.50
24618;DHT22;12762;51.730;5.356;2023-02-27T15:52:20;11.00;53.60
24618;DHT22;12762;51.730;5.356;2023-02-27T15:54:53;10.80;53.40
24618;DHT22;12762;51.730;5.356;2023-02-27T15:57:22;10.50;53.20
24618;DHT22;12762;51.730;5.356;2023-02-27T15:59:50;10.20;53.20
24618;DHT22;12762;51.730;5.356;2023-02-27T16:02:30;10.00;53.30
24618;DHT22;12762;51.730;5.356;2023-02-27T16:04:59;9.70;54.30
24618;DHT22;12762;51.730;5.356;2023-02-27T16:07:26;9.50;54.50
24618;DHT22;12762;51.730;5.356;2023-02-27T16:09:59;9.30;54.60
24618;DHT22;12762;51.730;5.356;2023-02-27T16:12:33;9.10;54.70
24618;DHT22;12762;51.730;5.356;2023-02-27T16:15:30;9.00;54.90
24618;DHT22;12762;51.730;5.356;2023-02-27T16:20:41;8.60;55.10
24618;DHT22;12762;51.730;5.356;2023-02-27T16:26:28;8.30;55.30
24618;DHT22;12762;51.730;5.356;2023-02-27T16:29:01;8.10;55.40
24618;DHT22;12762;51.730;5.356;2023-02-27T16:34:34;7.90;55.70
24618;DHT22;12762;51.730;5.356;2023-02-27T16:37:38;7.80;55.70
24618;DHT22;12762;51.730;5.356;2023-02-27T16:40:15;7.70;55.90
24618;DHT22;12762;51.730;5.356;2023-02-27T16:42:44;7.50;55.90
24618;DHT22;12762;51.730;5.356;2023-02-27T16:45:26;7.50;56.00
24618;DHT22;12762;51.730;5.356;2023-02-27T16:47:56;7.40;56.00
24618;DHT22;12762;51.730;5.356;2023-02-27T16:50:31;7.30;56.00
24618;DHT22;12762;51.730;5.356;2023-02-27T16:52:59;7.20;56.10
24618;DHT22;12762;51.730;5.356;2023-02-27T16:55:26;7.20;56.30
24618;DHT22;12762;51.730;5.356;2023-02-27T16:57:53;7.10;56.30
24618;DHT22;12762;51.730;5.356;2023-02-27T17:00:20;7.00;56.30
24618;DHT22;12762;51.730;5.356;2023-02-27T17:02:50;6.90;56.30
24618;DHT22;12762;51.730;5.356;2023-02-27T17:05:17;6.80;56.40
24618;DHT22;12762;51.730;5.356;2023-02-27T17:07:44;6.70;56.40
24618;DHT22;12762;51.730;5.356;2023-02-27T17:10:17;6.60;56.50
24618;DHT22;12762;51.730;5.356;2023-02-27T17:12:44;6.60;56.60
24618;DHT22;12762;51.730;5.356;2023-02-27T17:15:13;6.50;56.70
24618;DHT22;12762;51.730;5.356;2023-02-27T17:17:41;6.40;56.70
24618;DHT22;12762;51.730;5.356;2023-02-27T17:20:13;6.30;56.80
24618;DHT22;12762;51.730;5.356;2023-02-27T17:22:42;6.20;56.80
24618;DHT22;12762;51.730;5.356;2023-02-27T17:25:11;6.10;56.90
24618;DHT22;12762;51.730;5.356;2023-02-27T17:27:38;6.00;56.90
24618;DHT22;12762;51.730;5.356;2023-02-27T17:30:07;6.00;57.00
24618;DHT22;12762;51.730;5.356;2023-02-27T17:32:34;5.90;57.10
24618;DHT22;12762;51.730;5.356;2023-02-27T17:35:01;5.80;57.10
24618;DHT22;12762;51.730;5.356;2023-02-27T17:37:28;5.70;57.10
24618;DHT22;12762;51.730;5.356;2023-02-27T17:39:55;5.70;57.20
24618;DHT22;12762;51.730;5.356;2023-02-27T17:42:22;5.60;57.80
24618;DHT22;12762;51.730;5.356;2023-02-27T17:44:51;5.50;57.20
24618;DHT22;12762;51.730;5.356;2023-02-27T17:47:18;5.50;57.30
24618;DHT22;12762;51.730;5.356;2023-02-27T17:49:45;5.40;57.20
24618;DHT22;12762;51.730;5.356;2023-02-27T17:52:12;5.40;57.30
24618;DHT22;12762;51.730;5.356;2023-02-27T17:54:39;5.30;57.30
24618;DHT22;12762;51.730;5.356;2023-02-27T17:57:07;5.20;57.40
24618;DHT22;12762;51.730;5.356;2023-02-27T17:59:36;5.10;57.40
24618;DHT22;12762;51.730;5.356;2023-02-27T18:02:03;5.10;57.50
24618;DHT22;12762;51.730;5.356;2023-02-27T18:04:29;5.00;57.50
24618;DHT22;12762;51.730;5.356;2023-02-27T18:06:56;5.00;57.50
24618;DHT22;12762;51.730;5.356;2023-02-27T18:09:23;4.90;57.60
24618;DHT22;12762;51.730;5.356;2023-02-27T18:11:50;4.90;57.70
24618;DHT22;12762;51.730;5.356;2023-02-27T18:14:17;4.80;57.70
24618;DHT22;12762;51.730;5.356;2023-02-27T18:16:46;4.70;57.60
24618;DHT22;12762;51.730;5.356;2023-02-27T18:19:13;4.70;57.70
24618;DHT22;12762;51.730;5.356;2023-02-27T18:21:40;4.60;57.70
24618;DHT22;12762;51.730;5.356;2023-02-27T18:24:14;4.50;57.80
24618;DHT22;12762;51.730;5.356;2023-02-27T18:26:42;4.40;57.80
24618;DHT22;12762;51.730;5.356;2023-02-27T18:29:10;4.40;58.00
24618;DHT22;12762;51.730;5.356;2023-02-27T18:31:40;4.30;58.00
24618;DHT22;12762;51.730;5.356;2023-02-27T18:34:08;4.20;58.10
24618;DHT22;12762;51.730;5.356;2023-02-27T18:36:36;4.10;58.10
24618;DHT22;12762;51.730;5.356;2023-02-27T18:39:04;4.10;58.20
24618;DHT22;12762;51.730;5.356;2023-02-27T18:41:32;4.00;58.30
24618;DHT22;12762;51.730;5.356;2023-02-27T18:43:59;4.00;58.40